createdAt,value
2018-03-24T00:00:47.230Z,32.30
2018-03-24T00:03:51.356Z,32.63
2018-03-24T00:06:54.711Z,32.77
2018-03-24T00:09:58.881Z,32.73
2018-03-24T00:13:02.289Z,31.47
2018-03-24T00:16:05.678Z,33.67
2018-03-24T00:19:09.054Z,34.67
2018-03-24T00:22:15.047Z,32.23
2018-03-24T00:25:18.417Z,33.63
2018-03-24T00:28:22.569Z,33.57
2018-03-24T00:31:26.066Z,34.33
2018-03-24T00:34:29.429Z,32.57
2018-03-24T00:37:33.644Z,33.47
2018-03-24T00:40:37.769Z,33.80
2018-03-24T00:43:41.908Z,33.13
2018-03-24T00:46:45.324Z,31.63
2018-03-24T00:49:48.701Z,32.93
2018-03-24T00:52:52.058Z,32.63
2018-03-24T00:55:56.186Z,31.83
2018-03-24T00:58:59.540Z,30.97
2018-03-24T01:02:02.972Z,33.80
2018-03-24T01:05:07.102Z,34.37
2018-03-24T01:08:10.558Z,31.47
2018-03-24T01:11:13.912Z,31.67
2018-03-24T01:14:18.201Z,33.03
2018-03-24T01:17:21.561Z,33.80
2018-03-24T01:20:24.933Z,31.77
2018-03-24T01:23:29.045Z,31.83
2018-03-24T01:26:32.508Z,32.00
2018-03-24T01:29:36.024Z,33.90
2018-03-24T01:32:39.453Z,32.33
2018-03-24T01:35:43.614Z,33.93
2018-03-24T01:38:46.952Z,33.20
2018-03-24T01:41:50.959Z,34.07
2018-03-24T01:44:54.478Z,33.87
2018-03-24T01:47:59.070Z,35.50
2018-03-24T01:51:03.400Z,33.23
2018-03-24T01:57:36.379Z,33.33
2018-03-24T02:00:39.769Z,36.00
2018-03-24T02:03:43.131Z,34.80
2018-03-24T02:06:47.247Z,36.30
2018-03-24T02:09:50.624Z,38.27
2018-03-24T02:12:53.974Z,38.57
2018-03-24T02:15:57.314Z,37.33
2018-03-24T02:19:00.672Z,37.13
2018-03-24T02:22:04.173Z,36.63
2018-03-24T02:25:07.520Z,36.07
2018-03-24T02:28:10.878Z,36.10
2018-03-24T02:31:14.421Z,36.47
2018-03-24T02:34:17.772Z,37.00
2018-03-24T02:37:21.132Z,37.63
2018-03-24T02:40:24.486Z,37.30
2018-03-24T02:43:27.868Z,37.20
2018-03-24T02:46:31.222Z,36.17
2018-03-24T02:49:34.585Z,35.97
2018-03-24T02:52:37.954Z,36.17
2018-03-24T02:55:42.135Z,37.03
2018-03-24T02:58:46.257Z,34.70
2018-03-24T03:01:51.113Z,35.80
2018-03-24T03:04:55.296Z,34.63
2018-03-24T03:07:58.653Z,35.33
2018-03-24T03:11:02.006Z,34.97
2018-03-24T03:14:05.376Z,36.50
2018-03-24T03:17:08.728Z,37.20
2018-03-24T03:20:12.846Z,35.97
2018-03-24T03:23:16.961Z,37.80
2018-03-24T03:26:21.088Z,38.67
2018-03-24T03:29:24.571Z,35.87
2018-03-24T03:32:28.692Z,36.93
2018-03-24T03:35:33.726Z,38.27
2018-03-24T03:38:37.930Z,38.07
2018-03-24T03:41:41.344Z,38.70
2018-03-24T03:44:44.712Z,38.33
2018-03-24T03:47:48.070Z,40.73
2018-03-24T03:50:51.417Z,39.00
2018-03-24T03:53:56.284Z,40.43
2018-03-24T03:57:00.415Z,39.87
2018-03-24T04:00:03.835Z,38.60
2018-03-24T04:03:07.267Z,36.20
2018-03-24T04:06:10.713Z,36.20
2018-03-24T04:09:14.066Z,35.37
2018-03-24T04:12:17.416Z,36.97
2018-03-24T04:15:20.754Z,38.63
2018-03-24T04:18:24.109Z,36.13
2018-03-24T04:21:27.460Z,38.77
2018-03-24T04:24:30.806Z,35.73
2018-03-24T04:27:34.218Z,38.53
2018-03-24T04:30:37.525Z,39.03
2018-03-24T04:33:40.880Z,34.77
2018-03-24T04:36:44.998Z,34.93
2018-03-24T04:39:49.146Z,35.43
2018-03-24T04:42:52.541Z,36.73
2018-03-24T04:45:55.897Z,35.60
2018-03-24T04:48:59.254Z,36.10
2018-03-24T04:52:02.607Z,32.60
2018-03-24T04:55:05.971Z,32.67
2018-03-24T04:58:09.325Z,32.97
2018-03-24T05:01:13.443Z,33.83
2018-03-24T05:04:16.807Z,34.27
2018-03-24T05:07:20.159Z,35.87
2018-03-24T05:10:23.521Z,36.27
2018-03-24T05:13:27.669Z,35.87
2018-03-24T05:16:31.026Z,35.43
2018-03-24T05:19:34.470Z,35.33
2018-03-24T05:22:37.936Z,39.00
2018-03-24T05:25:42.272Z,36.00
2018-03-24T05:28:46.445Z,36.37
2018-03-24T05:31:49.908Z,37.83
2018-03-24T05:34:53.314Z,38.43
2018-03-24T05:37:56.682Z,39.83
2018-03-24T05:41:00.811Z,37.27
2018-03-24T05:44:04.950Z,37.23
2018-03-24T05:47:08.325Z,39.10
2018-03-24T05:50:11.675Z,37.30
2018-03-24T05:53:15.038Z,37.60
2018-03-24T05:56:18.624Z,38.77
2018-03-24T05:59:22.872Z,38.73
2018-03-24T06:02:26.337Z,38.97
2018-03-24T06:05:30.470Z,40.63
2018-03-24T06:08:33.989Z,41.40
2018-03-24T06:11:37.355Z,39.57
2018-03-24T06:14:41.501Z,42.20
2018-03-24T06:17:44.998Z,44.33
2018-03-24T06:20:48.387Z,42.03
2018-03-24T06:23:52.542Z,42.73
2018-03-24T06:26:56.177Z,45.77
2018-03-24T06:30:00.377Z,44.30
2018-03-24T06:33:03.745Z,46.07
2018-03-24T06:36:07.896Z,47.30
2018-03-24T06:39:11.257Z,47.23
2018-03-24T06:42:14.857Z,47.40
2018-03-24T06:45:18.239Z,46.40
2018-03-24T06:48:22.585Z,45.90
2018-03-24T06:51:25.938Z,48.53
2018-03-24T06:54:29.298Z,48.33
2018-03-24T06:57:32.665Z,47.77
2018-03-24T07:00:36.042Z,45.60
2018-03-24T07:03:40.158Z,47.37
2018-03-24T07:06:43.540Z,47.23
2018-03-24T07:09:46.889Z,49.83
2018-03-24T07:12:50.273Z,50.63
2018-03-24T07:15:54.384Z,49.33
2018-03-24T07:18:58.518Z,50.13
2018-03-24T07:22:01.882Z,46.87
2018-03-24T07:25:05.251Z,47.10
2018-03-24T07:28:08.592Z,48.23
2018-03-24T07:31:12.727Z,46.83
2018-03-24T07:34:16.114Z,47.10
2018-03-24T07:37:20.233Z,45.50
2018-03-24T07:40:24.500Z,45.40
2018-03-24T07:43:27.877Z,45.17
2018-03-24T07:46:31.258Z,41.93
2018-03-24T07:49:35.379Z,41.57
2018-03-24T07:52:38.787Z,43.17
2018-03-24T07:55:42.168Z,42.23
2018-03-24T07:58:46.286Z,41.53
2018-03-24T08:01:50.407Z,44.50
2018-03-24T08:04:53.811Z,41.43
2018-03-24T08:07:57.165Z,41.03
2018-03-24T08:11:00.519Z,42.33
2018-03-24T08:14:03.882Z,40.83
2018-03-24T08:17:08.008Z,38.93
2018-03-24T08:20:12.138Z,39.83
2018-03-24T08:23:15.539Z,40.33
2018-03-24T08:26:18.933Z,38.30
2018-03-24T08:29:23.056Z,41.77
2018-03-24T08:32:26.437Z,42.30
2018-03-24T08:35:30.595Z,42.40
2018-03-24T08:38:34.014Z,41.20
2018-03-24T08:41:37.390Z,42.93
2018-03-24T08:44:40.769Z,38.80
2018-03-24T08:47:44.252Z,39.97
2018-03-24T08:50:48.423Z,40.83
2018-03-24T08:53:51.784Z,40.70
2018-03-24T08:56:56.110Z,40.40
2018-03-24T08:59:59.469Z,39.77
2018-03-24T09:03:02.839Z,37.43
2018-03-24T09:06:06.214Z,37.27
2018-03-24T09:09:09.566Z,34.47
2018-03-24T09:12:12.934Z,35.10
2018-03-24T09:15:16.287Z,34.50
2018-03-24T09:18:20.585Z,35.87
2018-03-24T09:21:25.451Z,33.67
2018-03-24T09:24:29.584Z,33.07
2018-03-24T09:27:32.958Z,34.97
2018-03-24T09:30:37.095Z,33.27
2018-03-24T09:33:40.497Z,33.50
2018-03-24T09:36:43.865Z,35.43
2018-03-24T09:39:48.072Z,34.03
2018-03-24T09:42:51.455Z,34.67
2018-03-24T09:45:54.884Z,33.80
2018-03-24T09:48:59.058Z,33.23
2018-03-24T09:52:02.558Z,34.03
2018-03-24T09:55:05.923Z,35.43
2018-03-24T09:58:10.167Z,36.33
2018-03-24T10:01:13.544Z,35.53
2018-03-24T10:04:17.704Z,37.30
2018-03-24T10:07:21.042Z,38.03
2018-03-24T10:10:25.345Z,39.57
2018-03-24T10:13:28.785Z,37.27
2018-03-24T10:16:32.165Z,37.57
2018-03-24T10:19:36.333Z,39.00
2018-03-24T10:26:19.040Z,40.67
2018-03-24T10:29:22.432Z,39.27
2018-03-24T10:32:26.589Z,41.30
2018-03-24T10:35:30.108Z,39.10
2018-03-24T10:38:33.463Z,38.50
2018-03-24T10:41:37.091Z,38.37
2018-03-24T10:44:40.573Z,39.77
2018-03-24T10:47:43.953Z,37.37
2018-03-24T10:50:48.204Z,37.57
2018-03-24T10:53:51.616Z,39.83
2018-03-24T10:56:55.031Z,36.90
2018-03-24T10:59:58.487Z,38.50
2018-03-24T11:03:02.086Z,37.90
2018-03-24T11:06:06.208Z,37.73
2018-03-24T11:09:09.724Z,38.23
2018-03-24T11:12:13.108Z,38.70
2018-03-24T11:15:16.602Z,37.43
2018-03-24T11:18:19.972Z,36.93
2018-03-24T11:21:23.351Z,35.27
2018-03-24T11:24:26.716Z,36.13
2018-03-24T11:27:30.105Z,37.90
2018-03-24T11:30:33.495Z,37.27
2018-03-24T11:33:37.672Z,37.80
2018-03-24T11:36:41.126Z,38.40
2018-03-24T11:39:44.610Z,37.67
2018-03-24T11:42:48.843Z,37.97
2018-03-24T11:45:52.423Z,37.47
2018-03-24T11:48:55.856Z,35.90
2018-03-24T11:51:59.260Z,39.40
2018-03-24T11:55:03.367Z,34.20
2018-03-24T11:58:06.754Z,38.33
2018-03-24T12:01:11.074Z,35.90
2018-03-24T12:04:15.313Z,37.17
2018-03-24T12:07:18.742Z,35.63
2018-03-24T12:10:22.125Z,34.90
2018-03-24T12:13:25.515Z,34.30
2018-03-24T12:16:29.037Z,35.27
2018-03-24T12:19:33.138Z,34.97
2018-03-24T12:22:36.723Z,35.03
2018-03-24T12:25:40.119Z,35.00
2018-03-24T12:28:43.514Z,34.40
2018-03-24T12:31:47.641Z,34.83
2018-03-24T12:34:51.783Z,35.27
2018-03-24T12:37:55.282Z,34.70
2018-03-24T12:40:58.691Z,35.30
2018-03-24T12:44:02.079Z,35.43
2018-03-24T12:47:05.463Z,35.43
2018-03-24T12:50:08.859Z,36.70
2018-03-24T12:53:12.425Z,35.97
2018-03-24T12:56:15.830Z,36.27
2018-03-24T12:59:19.206Z,36.63
2018-03-24T13:02:22.595Z,35.20
2018-03-24T13:05:26.165Z,36.43
2018-03-24T13:08:29.624Z,38.40
2018-03-24T13:11:33.171Z,38.03
2018-03-24T13:14:36.661Z,37.43
2018-03-24T13:17:40.896Z,35.63
2018-03-24T13:20:44.278Z,36.10
2018-03-24T13:23:48.444Z,36.30
2018-03-24T13:26:51.810Z,35.90
2018-03-24T13:29:55.245Z,35.10
2018-03-24T13:32:58.638Z,35.67
2018-03-24T13:36:02.029Z,35.37
2018-03-24T13:39:06.274Z,32.67
2018-03-24T13:42:09.700Z,34.10
2018-03-24T13:45:13.099Z,34.00
2018-03-24T13:48:16.493Z,32.07
2018-03-24T13:51:19.874Z,32.83
2018-03-24T13:54:23.253Z,30.70
2018-03-24T13:57:26.678Z,32.37
2018-03-24T14:00:30.097Z,32.70
2018-03-24T14:03:33.491Z,25.40
2018-03-24T14:06:36.893Z,26.00
2018-03-24T14:09:40.293Z,29.73
2018-03-24T14:12:43.690Z,25.23
2018-03-24T14:15:47.064Z,26.53
2018-03-24T14:18:50.545Z,26.23
2018-03-24T14:21:53.919Z,27.50
2018-03-24T14:24:58.180Z,27.63
2018-03-24T14:28:01.559Z,26.70
2018-03-24T14:31:05.165Z,25.37
2018-03-24T14:34:08.621Z,26.37
2018-03-24T14:37:11.984Z,27.17
2018-03-24T14:40:15.358Z,27.40
2018-03-24T14:43:18.731Z,31.23
2018-03-24T14:46:23.059Z,24.93
2018-03-24T14:49:27.396Z,26.47
2018-03-24T14:52:30.797Z,26.07
2018-03-24T14:55:34.190Z,28.57
2018-03-24T14:58:37.581Z,27.23
2018-03-24T15:01:41.742Z,28.97
2018-03-24T15:04:45.134Z,29.00
2018-03-24T15:07:48.514Z,27.97
2018-03-24T15:10:51.877Z,30.53
2018-03-24T15:13:56.006Z,28.47
2018-03-24T15:17:00.141Z,25.77
2018-03-24T15:20:03.525Z,25.77
2018-03-24T15:23:07.670Z,28.07
2018-03-24T15:26:11.042Z,24.10
2018-03-24T15:29:32.886Z,26.13
2018-03-24T15:32:52.047Z,25.87
2018-03-24T15:39:41.659Z,24.50
2018-03-24T15:42:45.041Z,27.67
2018-03-24T15:45:49.190Z,25.27
2018-03-24T15:48:52.704Z,24.30
2018-03-24T15:51:56.124Z,25.00
2018-03-24T15:54:59.587Z,26.33
2018-03-24T15:58:03.005Z,25.03
2018-03-24T16:01:06.389Z,25.60
2018-03-24T16:04:09.751Z,23.77
2018-03-24T16:07:14.044Z,25.43
2018-03-24T16:10:17.410Z,25.40
2018-03-24T16:13:20.965Z,27.13
2018-03-24T16:16:25.881Z,27.40
2018-03-24T16:19:29.275Z,26.40
2018-03-24T16:22:32.642Z,27.43
2018-03-24T16:25:36.025Z,27.67
2018-03-24T16:28:40.166Z,29.37
2018-03-24T16:31:43.550Z,28.97
2018-03-24T16:34:46.933Z,27.63
2018-03-24T16:37:51.073Z,27.40
2018-03-24T16:40:54.641Z,28.87
2018-03-24T16:43:58.151Z,26.87
2018-03-24T16:47:02.304Z,27.93
2018-03-24T16:50:05.698Z,28.03
2018-03-24T16:53:09.058Z,28.37
2018-03-24T16:56:12.604Z,29.50
2018-03-24T16:59:15.991Z,29.90
2018-03-24T17:02:19.477Z,29.13
2018-03-24T17:05:23.712Z,29.83
2018-03-24T17:08:27.211Z,27.93
2018-03-24T17:11:31.433Z,29.07
2018-03-24T17:14:34.788Z,29.27
2018-03-24T17:17:38.281Z,28.77
2018-03-24T17:20:41.611Z,28.07
2018-03-24T17:23:45.762Z,28.60
2018-03-24T17:26:49.149Z,29.17
2018-03-24T17:29:52.528Z,30.50
2018-03-24T17:32:56.678Z,32.40
2018-03-24T17:36:00.067Z,32.57
2018-03-24T17:39:03.446Z,33.93
2018-03-24T17:42:07.612Z,34.37
2018-03-24T17:45:11.262Z,31.70
2018-03-24T17:48:14.651Z,31.57
2018-03-24T17:51:18.079Z,31.77
2018-03-24T17:54:22.241Z,31.10
2018-03-24T17:57:25.648Z,31.13
2018-03-24T18:00:28.988Z,30.87
2018-03-24T18:03:33.239Z,28.23
2018-03-24T18:06:36.590Z,28.30
2018-03-24T18:09:39.945Z,35.37
2018-03-24T18:12:43.385Z,38.10
2018-03-24T18:15:46.759Z,29.70
2018-03-24T18:18:50.171Z,29.80
2018-03-24T18:21:53.533Z,32.30
2018-03-24T18:24:56.901Z,25.97
2018-03-24T18:28:01.104Z,26.17
2018-03-24T18:31:05.046Z,27.33
2018-03-24T18:34:09.168Z,27.80
2018-03-24T18:37:12.562Z,26.47
2018-03-24T18:40:16.887Z,27.60
2018-03-24T18:43:20.285Z,29.93
2018-03-24T18:46:23.656Z,31.67
2018-03-24T18:49:27.044Z,33.97
2018-03-24T18:52:30.484Z,32.60
2018-03-24T18:55:33.882Z,27.60
2018-03-24T18:58:37.247Z,28.17
2018-03-24T19:01:40.611Z,28.17
2018-03-24T19:04:44.005Z,30.57
2018-03-24T19:07:47.359Z,26.23
2018-03-24T19:10:51.516Z,27.33
2018-03-24T19:13:54.885Z,28.70
2018-03-24T19:16:59.040Z,27.37
2018-03-24T19:20:02.467Z,26.27
2018-03-24T19:23:05.843Z,23.17
2018-03-24T19:26:09.244Z,25.50
2018-03-24T19:29:12.640Z,24.30
2018-03-24T19:32:16.027Z,22.63
2018-03-24T19:35:19.411Z,23.37
2018-03-24T19:38:22.836Z,23.80
2018-03-24T19:41:26.206Z,23.63
2018-03-24T19:44:30.367Z,24.50
2018-03-24T19:47:33.749Z,24.60
2018-03-24T19:50:37.169Z,24.17
2018-03-24T19:53:40.593Z,24.10
2018-03-24T19:56:43.999Z,22.77
2018-03-24T19:59:47.358Z,23.93
2018-03-24T20:02:50.761Z,25.17
2018-03-24T20:05:54.137Z,34.80
2018-03-24T20:08:57.532Z,32.60
2018-03-24T20:12:01.034Z,34.17
2018-03-24T20:15:04.420Z,40.57
2018-03-24T20:18:08.573Z,28.13
2018-03-24T20:21:11.961Z,26.63
2018-03-24T20:24:15.404Z,25.63
2018-03-24T20:27:18.787Z,24.77
2018-03-24T20:30:22.156Z,25.57
2018-03-24T20:33:25.587Z,24.53
2018-03-24T20:36:29.002Z,24.23
2018-03-24T20:39:33.234Z,24.57
2018-03-24T20:42:36.627Z,25.23
2018-03-24T20:45:39.988Z,26.73
2018-03-24T20:48:43.470Z,25.83
2018-03-24T20:51:46.860Z,25.90
2018-03-24T20:54:50.232Z,26.57
2018-03-24T20:57:54.299Z,26.40
2018-03-24T21:00:57.694Z,26.10
2018-03-24T21:04:01.081Z,25.73
2018-03-24T21:07:04.462Z,30.07
2018-03-24T21:10:08.637Z,28.90
2018-03-24T21:13:12.034Z,28.37
2018-03-24T21:16:15.449Z,30.77
2018-03-24T21:19:19.817Z,28.93
2018-03-24T21:22:23.948Z,30.37
2018-03-24T21:25:27.518Z,28.53
2018-03-24T21:28:31.860Z,46.47
2018-03-24T21:31:35.223Z,37.57
2018-03-24T21:34:38.590Z,29.50
2018-03-24T21:37:41.943Z,29.73
2018-03-24T21:40:46.112Z,32.47
2018-03-24T21:43:49.556Z,36.27
2018-03-24T21:46:53.723Z,30.37
2018-03-24T21:49:57.134Z,31.33
2018-03-24T21:53:00.528Z,30.97
2018-03-24T21:56:03.902Z,34.93
2018-03-24T21:59:07.479Z,34.47
2018-03-24T22:02:11.674Z,29.67
2018-03-24T22:05:15.817Z,31.73
2018-03-24T22:08:20.086Z,30.13
2018-03-24T22:11:23.494Z,31.00
2018-03-24T22:14:26.907Z,37.83
2018-03-24T22:17:30.297Z,26.70
2018-03-24T22:20:33.681Z,27.70
2018-03-24T22:23:37.011Z,27.80
2018-03-24T22:26:40.386Z,27.73
2018-03-24T22:29:43.928Z,28.20
2018-03-24T22:32:48.440Z,28.13
2018-03-24T22:35:51.836Z,28.97
2018-03-24T22:38:55.204Z,30.90
2018-03-24T22:41:58.583Z,28.70
2018-03-24T22:45:01.957Z,27.90
2018-03-24T22:48:06.085Z,26.67
2018-03-24T22:51:10.203Z,27.37
2018-03-24T22:54:14.426Z,25.60
2018-03-24T22:57:17.910Z,26.93
2018-03-24T23:00:22.185Z,28.40
2018-03-24T23:03:25.594Z,27.67
2018-03-24T23:06:28.956Z,30.33
2018-03-24T23:09:32.397Z,30.37
2018-03-24T23:12:35.753Z,31.03
2018-03-24T23:15:39.131Z,32.80
2018-03-24T23:18:43.307Z,30.90
2018-03-24T23:21:46.762Z,29.03
2018-03-24T23:24:50.245Z,31.87
2018-03-24T23:27:54.372Z,31.23
2018-03-24T23:30:58.494Z,30.40
2018-03-24T23:34:02.646Z,28.47
2018-03-24T23:37:06.097Z,31.17
2018-03-24T23:40:10.224Z,31.97
2018-03-24T23:43:14.389Z,31.07
2018-03-24T23:46:17.759Z,31.23
2018-03-24T23:49:21.108Z,30.43
2018-03-24T23:52:24.463Z,33.40
2018-03-24T23:55:27.835Z,32.50
2018-03-24T23:58:31.957Z,29.40
